Time;durP1;ratioP1;P1;durP2;ratioP2;P2;SDS_P1;SDS_P2;PMS_P1;PMS_P2;Temp;Humidity;BMP_temperature;BMP_pressure;BME280_temperature;BME280_humidity;BME280_pressure;Samples;Min_cycle;Max_cycle;Signal;HPM_P1;HPM_P2
2023/04/26 00:01:13;;;;;;;5.97;2.85;;;2.70;99.90;;;;;;5049159;28;20040;-83
2023/04/26 00:03:39;;;;;;;6.18;2.50;;;2.60;99.90;;;;;;5048770;28;20084;-83
2023/04/26 00:06:07;;;;;;;5.15;2.90;;;2.60;99.90;;;;;;5049044;28;20451;-83
2023/04/26 00:08:33;;;;;;;7.43;2.65;;;2.60;99.90;;;;;;5031763;28;20041;-83
2023/04/26 00:10:59;;;;;;;5.82;2.65;;;2.50;99.90;;;;;;5049476;28;20612;-83
2023/04/26 00:13:25;;;;;;;8.68;2.90;;;2.50;99.90;;;;;;5024542;28;20088;-83
2023/04/26 00:15:50;;;;;;;8.05;3.33;;;2.50;99.90;;;;;;5023631;28;20046;-83
2023/04/26 00:18:16;;;;;;;6.93;3.22;;;2.50;99.90;;;;;;5039432;28;20102;-83
2023/04/26 00:20:42;;;;;;;7.85;3.05;;;2.40;99.90;;;;;;5030365;28;20130;-83
2023/04/26 00:23:09;;;;;;;7.13;2.38;;;2.50;99.90;;;;;;5031036;28;20048;-83
2023/04/26 00:25:35;;;;;;;6.65;3.05;;;2.50;99.90;;;;;;5030588;28;20053;-84
2023/04/26 00:28:01;;;;;;;6.95;2.63;;;2.40;99.90;;;;;;5048634;28;20885;-83
2023/04/26 00:30:26;;;;;;;6.38;2.72;;;2.50;99.90;;;;;;5049321;28;20052;-83
2023/04/26 00:32:52;;;;;;;7.95;3.13;;;2.60;99.90;;;;;;5045877;28;20040;-82
2023/04/26 00:35:18;;;;;;;8.13;3.78;;;2.60;99.90;;;;;;5048948;28;20380;-83
2023/04/26 00:37:44;;;;;;;7.20;2.97;;;2.70;99.90;;;;;;5047531;28;20082;-83
2023/04/26 00:40:10;;;;;;;8.88;2.92;;;2.80;99.90;;;;;;5031621;28;20321;-83
2023/04/26 00:42:38;;;;;;;6.40;2.50;;;2.90;99.90;;;;;;5013975;28;20045;-83
2023/04/26 00:45:04;;;;;;;8.05;2.90;;;3.00;99.90;;;;;;5047432;28;20045;-83
2023/04/26 00:47:29;;;;;;;6.20;2.97;;;3.10;99.90;;;;;;5030560;28;20056;-83
2023/04/26 00:49:55;;;;;;;7.20;2.97;;;3.10;99.90;;;;;;5030540;28;20148;-83
2023/04/26 00:52:25;;;;;;;5.30;2.97;;;3.20;99.90;;;;;;5047462;28;20040;-83
2023/04/26 00:54:52;;;;;;;7.90;3.25;;;3.50;99.90;;;;;;5030779;28;20491;-83
2023/04/26 00:57:17;;;;;;;5.18;2.83;;;3.30;99.90;;;;;;5030988;28;20049;-84
2023/04/26 00:59:43;;;;;;;5.55;3.38;;;3.30;99.90;;;;;;5029987;28;20113;-84
2023/04/26 01:02:09;;;;;;;11.15;3.47;;;3.40;99.90;;;;;;5028858;28;20048;-83
2023/04/26 01:04:36;;;;;;;6.07;2.70;;;3.30;99.90;;;;;;5029824;28;20079;-83
2023/04/26 01:07:02;;;;;;;4.55;2.75;;;3.40;99.90;;;;;;5047464;28;20090;-83
2023/04/26 01:09:30;;;;;;;6.05;2.88;;;3.30;99.90;;;;;;5030453;28;20041;-83
2023/04/26 01:11:57;;;;;;;4.13;2.80;;;3.40;99.90;;;;;;5047031;28;20049;-83
2023/04/26 01:14:23;;;;;;;6.80;2.72;;;3.40;99.90;;;;;;5046629;28;20052;-83
2023/04/26 01:16:49;;;;;;;4.75;2.55;;;3.30;99.90;;;;;;5015532;28;20115;-83
2023/04/26 01:19:15;;;;;;;5.65;2.90;;;3.30;99.90;;;;;;5029429;28;20075;-84
2023/04/26 01:21:43;;;;;;;6.50;3.03;;;3.20;99.90;;;;;;5013209;28;20079;-84
2023/04/26 01:24:10;;;;;;;5.55;2.78;;;3.10;99.90;;;;;;5012970;28;20049;-83
2023/04/26 01:26:44;;;;;;;4.10;2.75;;;3.10;99.90;;;;;;5048403;28;20162;-83
2023/04/26 01:29:13;;;;;;;6.93;2.80;;;3.10;99.90;;;;;;5041080;28;20134;-84
2023/04/26 01:31:39;;;;;;;8.35;2.83;;;3.00;99.90;;;;;;5066391;28;20044;-83
2023/04/26 01:34:04;;;;;;;5.68;2.70;;;2.90;99.90;;;;;;5014164;28;20048;-83
2023/04/26 01:36:31;;;;;;;6.00;2.58;;;2.80;99.90;;;;;;5030679;28;20415;-84
2023/04/26 01:38:56;;;;;;;5.82;3.08;;;2.80;99.90;;;;;;5030071;28;20407;-84
2023/04/26 01:41:23;;;;;;;7.10;3.15;;;2.80;99.90;;;;;;5048039;28;20037;-84
2023/04/26 01:43:49;;;;;;;5.00;3.00;;;2.70;99.90;;;;;;5029445;28;20565;-83
2023/04/26 01:46:14;;;;;;;6.88;3.05;;;2.60;99.90;;;;;;5060252;28;20041;-83
2023/04/26 01:48:40;;;;;;;4.70;2.85;;;2.60;99.90;;;;;;5030114;28;20101;-84
2023/04/26 01:51:06;;;;;;;5.93;2.53;;;3.20;99.90;;;;;;5030537;28;20041;-83
2023/04/26 01:53:32;;;;;;;7.38;3.20;;;2.50;99.90;;;;;;5029912;28;20102;-84
2023/04/26 01:56:01;;;;;;;5.93;3.33;;;2.50;99.90;;;;;;5030721;28;20045;-83
2023/04/26 01:58:28;;;;;;;6.35;2.88;;;2.50;99.90;;;;;;5046693;28;20045;-83
2023/04/26 02:00:53;;;;;;;6.72;3.17;;;2.50;99.90;;;;;;5046615;28;20546;-83
2023/04/26 02:03:20;;;;;;;7.25;2.95;;;2.50;99.90;;;;;;5027451;28;20092;-83
2023/04/26 02:05:45;;;;;;;8.48;3.22;;;2.60;99.90;;;;;;5030110;28;20515;-83
2023/04/26 02:08:11;;;;;;;5.68;2.70;;;2.60;99.90;;;;;;5029358;28;20139;-82
2023/04/26 02:10:36;;;;;;;7.95;2.95;;;2.80;99.90;;;;;;5013492;28;20055;-83
2023/04/26 02:13:02;;;;;;;7.18;2.78;;;2.90;99.90;;;;;;5029066;28;20049;-83
2023/04/26 02:15:28;;;;;;;6.07;2.80;;;3.00;99.90;;;;;;5029585;28;20388;-83
2023/04/26 02:17:54;;;;;;;5.80;2.28;;;3.10;99.90;;;;;;5026718;28;20131;-83
2023/04/26 02:20:20;;;;;;;4.97;2.45;;;3.20;99.90;;;;;;5046891;28;20545;-82
2023/04/26 02:22:46;;;;;;;9.85;2.85;;;3.30;99.90;;;;;;5015142;28;20038;-83
2023/04/26 02:25:11;;;;;;;6.30;2.40;;;3.30;99.90;;;;;;5026750;28;20491;-83
2023/04/26 02:27:37;;;;;;;2.72;2.25;;;3.40;99.90;;;;;;5027662;28;20087;-83
2023/04/26 02:30:06;;;;;;;4.18;2.30;;;3.40;99.90;;;;;;5012747;28;20135;-83
2023/04/26 02:32:31;;;;;;;4.18;2.55;;;3.50;99.90;;;;;;5027961;28;20044;-83
2023/04/26 02:34:57;;;;;;;7.03;3.03;;;3.50;99.90;;;;;;5030255;28;20053;-83
2023/04/26 02:37:26;;;;;;;4.65;2.63;;;3.50;99.90;;;;;;5028225;28;20447;-83
2023/04/26 02:39:51;;;;;;;7.45;2.80;;;3.40;99.90;;;;;;5012819;28;20414;-83
2023/04/26 02:42:17;;;;;;;6.85;2.55;;;3.40;99.90;;;;;;5027880;28;20049;-83
2023/04/26 02:44:43;;;;;;;4.85;2.20;;;3.30;99.90;;;;;;5012712;28;20037;-84
2023/04/26 02:47:09;;;;;;;3.92;2.42;;;3.20;99.90;;;;;;5046803;28;20052;-83
2023/04/26 02:49:35;;;;;;;4.55;2.33;;;3.20;99.90;;;;;;5024963;28;20443;-84
2023/04/26 02:52:00;;;;;;;4.60;2.80;;;3.20;99.90;;;;;;5001097;28;20052;-84
2023/04/26 02:54:26;;;;;;;7.00;2.65;;;3.20;99.90;;;;;;5028954;28;20053;-84
2023/04/26 02:56:52;;;;;;;7.18;2.75;;;3.20;99.90;;;;;;5027794;28;20495;-83
2023/04/26 02:59:17;;;;;;;5.15;2.33;;;3.20;99.90;;;;;;5028833;28;20407;-84
2023/04/26 03:01:43;;;;;;;3.85;2.50;;;3.10;99.90;;;;;;5044849;28;20040;-84
2023/04/26 03:04:08;;;;;;;7.45;3.10;;;3.10;99.90;;;;;;5028930;28;20041;-84
2023/04/26 03:06:34;;;;;;;8.50;2.60;;;3.10;99.90;;;;;;5027802;28;20045;-84
2023/04/26 03:09:00;;;;;;;3.30;2.60;;;3.10;99.90;;;;;;5028782;28;20041;-84
2023/04/26 03:11:26;;;;;;;3.15;2.08;;;3.00;99.90;;;;;;5027816;28;20033;-84
2023/04/26 03:13:51;;;;;;;4.82;2.40;;;2.90;99.90;;;;;;5046808;28;20175;-84
2023/04/26 03:16:22;;;;;;;4.32;2.50;;;2.90;99.90;;;;;;5012245;28;20083;-84
2023/04/26 03:18:48;;;;;;;6.03;2.50;;;2.90;99.90;;;;;;5027599;28;20045;-83
2023/04/26 03:21:14;;;;;;;5.38;2.80;;;2.80;99.90;;;;;;5012005;28;20542;-83
2023/04/26 03:23:40;;;;;;;4.07;2.70;;;2.70;99.90;;;;;;5027227;28;20036;-83
2023/04/26 03:26:06;;;;;;;4.20;2.80;;;2.70;99.90;;;;;;5032391;28;20094;-83
2023/04/26 03:28:31;;;;;;;4.90;2.15;;;2.60;99.90;;;;;;5010154;28;20397;-83
2023/04/26 03:30:57;;;;;;;3.90;2.67;;;2.60;99.90;;;;;;5013010;28;20049;-83
2023/04/26 03:33:23;;;;;;;3.28;2.40;;;2.50;99.90;;;;;;5031767;28;20175;-84
2023/04/26 03:35:50;;;;;;;6.03;2.45;;;2.50;99.90;;;;;;5049805;28;20103;-83
2023/04/26 03:38:16;;;;;;;8.30;2.50;;;2.40;99.90;;;;;;5030669;28;20506;-83
2023/04/26 03:40:41;;;;;;;7.90;2.72;;;2.70;99.90;;;;;;5032908;28;20053;-83
2023/04/26 03:43:08;;;;;;;5.38;2.35;;;2.30;99.90;;;;;;5049534;28;20041;-83
2023/04/26 03:45:36;;;;;;;5.72;2.28;;;2.30;99.90;;;;;;5030051;28;20059;-83
2023/04/26 03:48:01;;;;;;;5.03;2.05;;;2.30;99.90;;;;;;5044560;28;20053;-83
2023/04/26 03:50:27;;;;;;;5.05;2.40;;;2.30;99.90;;;;;;5049333;28;20048;-82
2023/04/26 03:52:52;;;;;;;9.07;2.38;;;2.20;99.90;;;;;;5031266;28;20162;-82
2023/04/26 03:55:19;;;;;;;3.97;2.85;;;2.20;99.90;;;;;;5031228;28;20041;-83
2023/04/26 03:57:48;;;;;;;4.22;2.33;;;2.10;99.90;;;;;;5031605;28;20217;-83
2023/04/26 04:00:14;;;;;;;5.60;2.60;;;2.10;99.90;;;;;;5032083;28;20045;-83
2023/04/26 04:02:40;;;;;;;3.13;2.55;;;2.10;99.90;;;;;;5028584;28;20055;-83
2023/04/26 04:05:07;;;;;;;7.32;2.35;;;2.10;99.90;;;;;;5043622;28;20044;-83
2023/04/26 04:07:33;;;;;;;6.78;2.08;;;2.10;99.90;;;;;;5052108;28;20048;-83
2023/04/26 04:09:59;;;;;;;7.00;2.45;;;2.00;99.90;;;;;;5033273;28;20052;-83
2023/04/26 04:12:24;;;;;;;6.05;2.45;;;2.00;99.90;;;;;;5032024;28;20118;-83
2023/04/26 04:14:51;;;;;;;4.47;2.50;;;2.00;99.90;;;;;;5031695;28;20095;-83
2023/04/26 04:17:17;;;;;;;5.70;2.47;;;2.00;99.90;;;;;;5031177;28;20064;-83
2023/04/26 04:19:43;;;;;;;3.67;2.20;;;2.00;99.90;;;;;;5030128;28;20045;-83
2023/04/26 04:22:09;;;;;;;4.53;2.45;;;2.00;99.90;;;;;;5048967;28;20057;-83
2023/04/26 04:24:35;;;;;;;5.90;2.30;;;2.00;99.90;;;;;;5030645;28;20053;-82
2023/04/26 04:27:02;;;;;;;4.63;2.30;;;2.00;99.90;;;;;;5030827;28;20091;-83
2023/04/26 04:29:28;;;;;;;4.07;2.20;;;2.00;99.90;;;;;;5047853;28;20106;-83
2023/04/26 04:31:53;;;;;;;5.53;2.50;;;2.00;99.90;;;;;;5047738;28;20045;-83
2023/04/26 04:34:19;;;;;;;6.40;2.70;;;2.00;99.90;;;;;;5047300;28;20045;-82
2023/04/26 04:36:44;;;;;;;5.30;3.05;;;2.00;99.90;;;;;;5028512;28;20052;-82
2023/04/26 04:39:14;;;;;;;6.13;2.42;;;2.00;99.90;;;;;;5023187;28;20049;-83
2023/04/26 04:41:46;;;;;;;3.83;2.75;;;2.00;99.90;;;;;;5048677;28;20495;-83
2023/04/26 04:44:14;;;;;;;8.77;2.72;;;2.00;99.90;;;;;;5031023;28;20056;-83
2023/04/26 04:46:40;;;;;;;3.67;2.75;;;2.00;99.90;;;;;;5030576;28;20065;-83
2023/04/26 04:49:08;;;;;;;7.05;2.58;;;2.00;99.90;;;;;;5031234;28;20126;-83
2023/04/26 04:51:33;;;;;;;6.07;2.53;;;2.00;99.90;;;;;;5031367;28;20049;-83
2023/04/26 04:54:07;;;;;;;5.05;2.50;;;2.00;99.90;;;;;;5030317;28;20037;-83
2023/04/26 04:56:33;;;;;;;7.18;2.67;;;2.00;99.90;;;;;;5028695;28;20151;-82
2023/04/26 04:58:59;;;;;;;5.63;2.70;;;2.00;99.90;;;;;;5030558;28;20822;-83
2023/04/26 05:01:24;;;;;;;5.25;2.47;;;2.10;99.90;;;;;;5029235;28;20049;-82
2023/04/26 05:03:50;;;;;;;4.95;2.58;;;2.10;99.90;;;;;;5029578;28;20044;-83
2023/04/26 05:06:16;;;;;;;4.47;2.78;;;2.20;99.90;;;;;;5045872;28;20087;-83
2023/04/26 05:08:41;;;;;;;4.95;2.30;;;2.20;99.90;;;;;;5029790;28;20152;-83
2023/04/26 05:11:07;;;;;;;6.40;2.85;;;2.30;99.90;;;;;;5049245;28;20627;-83
2023/04/26 05:13:32;;;;;;;6.18;3.00;;;2.30;99.90;;;;;;5029578;28;20041;-83
2023/04/26 05:15:58;;;;;;;11.70;3.25;;;2.40;99.90;;;;;;5046206;28;20052;-83
2023/04/26 05:18:23;;;;;;;5.53;3.40;;;2.50;99.90;;;;;;5029013;28;20045;-83
2023/04/26 05:20:49;;;;;;;4.57;3.03;;;2.70;99.90;;;;;;5030546;28;20059;-83
2023/04/26 05:23:15;;;;;;;2.97;2.60;;;2.80;99.90;;;;;;5010994;28;20131;-83
2023/04/26 05:25:42;;;;;;;12.35;2.90;;;3.10;99.90;;;;;;5029082;28;20407;-84
2023/04/26 05:28:11;;;;;;;3.15;2.40;;;3.20;99.90;;;;;;5030194;28;20061;-83
2023/04/26 05:30:37;;;;;;;4.65;2.88;;;3.50;99.90;;;;;;5030572;28;20414;-83
2023/04/26 05:33:03;;;;;;;4.95;2.75;;;3.60;99.90;;;;;;5048691;28;20456;-84
2023/04/26 05:35:28;;;;;;;5.00;2.95;;;3.70;99.90;;;;;;5027322;28;20138;-84
2023/04/26 05:37:54;;;;;;;6.25;2.95;;;3.90;99.90;;;;;;5030516;28;20199;-84
2023/04/26 05:40:19;;;;;;;5.20;3.05;;;4.00;99.90;;;;;;5045462;28;20068;-84
2023/04/26 05:42:45;;;;;;;5.47;2.95;;;4.20;99.90;;;;;;5030021;28;20174;-84
2023/04/26 05:45:11;;;;;;;3.80;2.50;;;4.30;99.90;;;;;;5014319;28;20381;-84
2023/04/26 05:47:37;;;;;;;6.70;2.50;;;4.50;99.90;;;;;;5047380;28;20047;-84
2023/04/26 05:50:03;;;;;;;5.55;2.53;;;4.60;99.90;;;;;;5048247;28;20496;-83
2023/04/26 05:52:29;;;;;;;6.00;2.60;;;4.90;99.90;;;;;;5045628;28;20048;-85
2023/04/26 05:54:55;;;;;;;5.63;2.50;;;5.40;99.90;;;;;;5027470;28;20399;-83
2023/04/26 05:57:21;;;;;;;4.88;2.45;;;6.40;99.90;;;;;;5047351;28;20048;-84
2023/04/26 05:59:46;;;;;;;2.97;2.17;;;7.30;99.90;;;;;;5047654;28;20107;-84
2023/04/26 06:02:12;;;;;;;7.50;2.20;;;8.30;99.90;;;;;;5027400;28;20049;-84
2023/04/26 06:04:37;;;;;;;6.70;2.10;;;9.00;99.90;;;;;;5028307;28;20059;-84
2023/04/26 06:07:03;;;;;;;2.13;1.90;;;9.20;99.90;;;;;;5046126;28;20372;-84
2023/04/26 06:09:30;;;;;;;3.22;2.10;;;8.90;99.90;;;;;;5012717;28;20037;-83
2023/04/26 06:11:56;;;;;;;7.05;2.33;;;8.10;99.90;;;;;;5047508;28;20049;-82
2023/04/26 06:14:21;;;;;;;5.88;2.25;;;7.90;99.90;;;;;;5047374;28;20132;-83
2023/04/26 06:16:47;;;;;;;4.30;1.95;;;7.60;99.90;;;;;;5029665;28;20131;-83
2023/04/26 06:19:13;;;;;;;4.20;2.50;;;7.40;99.90;;;;;;5026502;28;20056;-84
2023/04/26 06:21:38;;;;;;;2.63;1.90;;;7.20;99.90;;;;;;5013099;28;20045;-83
2023/04/26 06:24:04;;;;;;;4.38;1.98;;;7.10;99.90;;;;;;5013346;28;20053;-83
2023/04/26 06:26:31;;;;;;;3.72;1.77;;;7.00;99.90;;;;;;5047333;28;20041;-83
2023/04/26 06:28:56;;;;;;;4.60;2.17;;;6.80;99.90;;;;;;5046206;28;20052;-83
2023/04/26 06:31:22;;;;;;;4.55;2.25;;;6.70;99.90;;;;;;5013720;28;20045;-82
2023/04/26 06:33:47;;;;;;;7.70;2.03;;;6.70;99.90;;;;;;5043569;28;20044;-82
2023/04/26 06:36:13;;;;;;;3.70;1.90;;;6.70;99.90;;;;;;5047190;28;20045;-83
2023/04/26 06:38:39;;;;;;;4.68;2.38;;;6.70;99.90;;;;;;5045478;28;20041;-82
2023/04/26 06:41:04;;;;;;;7.93;2.35;;;6.80;99.90;;;;;;5047617;28;20071;-83
2023/04/26 06:43:30;;;;;;;6.18;2.20;;;6.80;99.90;;;;;;5028441;28;20048;-82
2023/04/26 06:45:56;;;;;;;2.90;2.17;;;6.80;99.90;;;;;;5047019;28;20317;-82
2023/04/26 06:48:21;;;;;;;4.72;2.13;;;6.90;99.90;;;;;;5046639;28;20049;-84
2023/04/26 06:50:47;;;;;;;4.50;1.90;;;7.00;99.90;;;;;;5029860;28;20801;-83
2023/04/26 06:53:13;;;;;;;4.07;1.73;;;7.00;99.90;;;;;;5047205;28;20162;-83
2023/04/26 06:55:38;;;;;;;4.43;2.25;;;7.10;99.90;;;;;;5046441;28;20044;-82
2023/04/26 06:58:04;;;;;;;3.80;1.90;;;7.20;99.90;;;;;;5037091;28;20788;-83
2023/04/26 07:00:30;;;;;;;4.22;2.03;;;7.30;99.90;;;;;;5050154;28;20045;-81
2023/04/26 07:02:56;;;;;;;4.65;1.90;;;7.30;99.90;;;;;;5051529;28;20053;-83
2023/04/26 07:05:21;;;;;;;4.07;1.83;;;7.40;99.90;;;;;;5049788;28;20482;-83
2023/04/26 07:07:48;;;;;;;5.70;1.95;;;7.50;99.90;;;;;;5036737;28;20076;-81
2023/04/26 07:10:14;;;;;;;3.90;2.10;;;7.50;99.90;;;;;;5049895;28;20048;-80
2023/04/26 07:12:40;;;;;;;3.95;2.30;;;7.50;99.90;;;;;;5051285;28;20055;-81
2023/04/26 07:15:06;;;;;;;6.03;1.95;;;7.70;99.90;;;;;;5051395;28;20179;-81
2023/04/26 07:17:32;;;;;;;4.78;1.55;;;7.80;99.90;;;;;;5047878;28;20041;-81
2023/04/26 07:19:58;;;;;;;4.45;1.80;;;8.00;99.90;;;;;;5031761;28;20044;-81
2023/04/26 07:22:23;;;;;;;3.47;1.70;;;8.10;99.90;;;;;;5047208;28;20037;-81
2023/04/26 07:24:49;;;;;;;3.70;1.83;;;8.10;99.90;;;;;;5013848;28;20045;-81
2023/04/26 07:27:15;;;;;;;4.75;1.90;;;8.20;99.90;;;;;;5049552;28;20132;-82
2023/04/26 07:29:41;;;;;;;3.30;1.90;;;8.30;99.90;;;;;;5015326;28;20053;-82
2023/04/26 07:32:06;;;;;;;3.35;2.10;;;8.50;99.90;;;;;;5031101;28;20059;-81
2023/04/26 07:34:32;;;;;;;5.32;1.80;;;8.60;99.90;;;;;;5048846;28;20056;-81
2023/04/26 07:36:57;;;;;;;5.28;1.83;;;8.60;99.90;;;;;;5050690;28;20048;-81
2023/04/26 07:39:23;;;;;;;6.57;2.03;;;8.70;99.90;;;;;;5031772;28;20045;-82
2023/04/26 07:41:49;;;;;;;4.05;1.73;;;8.70;99.90;;;;;;5031450;28;20048;-81
2023/04/26 07:44:15;;;;;;;5.45;1.73;;;8.60;99.90;;;;;;5050291;28;20045;-82
2023/04/26 07:46:40;;;;;;;6.47;2.38;;;8.70;99.90;;;;;;5032730;28;20049;-81
2023/04/26 07:49:06;;;;;;;3.65;1.95;;;8.80;99.90;;;;;;5049673;28;20407;-80
2023/04/26 07:51:32;;;;;;;3.72;1.60;;;9.10;99.90;;;;;;5032297;28;20057;-81
2023/04/26 07:53:57;;;;;;;4.43;1.60;;;9.10;99.90;;;;;;5049520;28;20041;-80
2023/04/26 07:56:23;;;;;;;3.03;1.42;;;8.90;99.90;;;;;;5032612;28;20442;-81
2023/04/26 07:58:49;;;;;;;3.33;1.77;;;8.90;99.90;;;;;;5031121;28;20063;-81
2023/04/26 08:01:14;;;;;;;7.18;1.58;;;8.70;99.90;;;;;;5049389;28;20138;-81
2023/04/26 08:03:41;;;;;;;3.28;1.60;;;8.70;99.90;;;;;;5050326;28;20092;-80
2023/04/26 08:06:07;;;;;;;4.72;1.73;;;8.80;99.90;;;;;;5050075;28;20044;-80
2023/04/26 08:08:39;;;;;;;6.03;1.80;;;9.40;99.90;;;;;;5030854;28;20128;-81
2023/04/26 08:11:06;;;;;;;6.40;2.30;;;9.30;99.90;;;;;;5032024;28;20044;-81
2023/04/26 08:13:32;;;;;;;4.10;1.50;;;9.50;99.90;;;;;;5050030;28;20283;-81
2023/04/26 08:15:57;;;;;;;4.50;2.03;;;9.60;99.90;;;;;;5048935;28;20392;-81
2023/04/26 08:18:23;;;;;;;4.63;1.60;;;9.50;99.90;;;;;;5015136;28;20052;-81
2023/04/26 08:20:48;;;;;;;3.28;1.60;;;9.50;99.90;;;;;;5032313;28;20076;-81
2023/04/26 08:23:14;;;;;;;4.30;1.50;;;9.80;99.90;;;;;;5049239;28;20044;-81
2023/04/26 08:25:40;;;;;;;3.80;1.60;;;9.80;99.90;;;;;;5031398;28;20048;-82
2023/04/26 08:28:07;;;;;;;3.50;1.52;;;9.80;99.90;;;;;;5049468;28;20041;-82
2023/04/26 08:30:33;;;;;;;3.88;2.00;;;9.90;99.90;;;;;;5049533;28;20056;-81
2023/04/26 08:32:58;;;;;;;5.68;1.88;;;9.90;99.90;;;;;;5031944;28;20511;-82
2023/04/26 08:35:25;;;;;;;6.22;2.33;;;9.90;99.90;;;;;;5049155;28;20048;-82
2023/04/26 08:37:50;;;;;;;5.07;1.63;;;10.00;99.90;;;;;;5048929;28;20049;-82
2023/04/26 08:40:22;;;;;;;2.53;1.33;;;10.00;99.90;;;;;;5049002;28;20068;-81
2023/04/26 08:42:48;;;;;;;2.38;1.60;;;10.00;99.90;;;;;;5050018;28;20045;-81
2023/04/26 08:45:15;;;;;;;2.28;1.40;;;10.10;99.90;;;;;;5030958;28;20045;-81
2023/04/26 08:47:52;;;;;;;2.72;1.52;;;9.90;99.90;;;;;;5049643;28;20044;-81
2023/04/26 08:50:22;;;;;;;5.05;1.98;;;9.80;99.90;;;;;;5049322;28;20049;-81
2023/04/26 08:52:50;;;;;;;3.55;1.70;;;9.70;99.90;;;;;;5048044;28;20037;-81
2023/04/26 08:55:16;;;;;;;3.47;2.40;;;9.60;99.90;;;;;;5049005;28;20056;-81
2023/04/26 08:57:46;;;;;;;3.53;1.50;;;9.60;99.90;;;;;;5049248;28;20041;-81
2023/04/26 09:00:14;;;;;;;4.53;1.83;;;9.40;99.90;;;;;;5031185;28;20131;-81
2023/04/26 09:02:43;;;;;;;4.88;1.83;;;9.50;99.90;;;;;;5047950;28;20087;-81
2023/04/26 09:05:10;;;;;;;3.30;1.73;;;9.40;99.90;;;;;;5048997;28;20041;-81
2023/04/26 09:07:41;;;;;;;4.15;1.65;;;9.40;99.90;;;;;;5030853;28;20049;-81
2023/04/26 09:10:08;;;;;;;3.28;1.40;;;9.50;99.90;;;;;;5049317;28;20037;-81
2023/04/26 09:12:35;;;;;;;3.88;1.77;;;9.60;99.90;;;;;;5047487;28;20055;-81
2023/04/26 09:15:00;;;;;;;3.78;1.33;;;9.70;99.90;;;;;;5030215;28;20128;-81
2023/04/26 09:17:29;;;;;;;2.08;1.58;;;9.60;99.90;;;;;;5030822;28;20128;-81
2023/04/26 09:19:55;;;;;;;2.10;1.60;;;9.50;99.90;;;;;;5047312;28;20128;-81
2023/04/26 09:22:32;;;;;;;3.50;1.63;;;9.50;99.90;;;;;;5046712;28;20091;-81
2023/04/26 09:24:59;;;;;;;6.43;2.10;;;9.60;99.90;;;;;;5030068;28;20123;-82
2023/04/26 09:27:35;;;;;;;4.43;1.50;;;9.70;99.90;;;;;;5049443;28;20049;-81
2023/04/26 09:30:10;;;;;;;7.10;2.38;;;9.70;99.90;;;;;;5046386;28;20727;-82
2023/04/26 09:32:57;;;;;;;3.92;1.50;;;9.90;99.90;;;;;;5048216;28;20041;-81
2023/04/26 09:35:37;;;;;;;4.90;1.65;;;9.60;99.90;;;;;;5029798;28;20077;-81
2023/04/26 09:38:07;;;;;;;3.03;1.40;;;10.10;99.90;;;;;;5047473;28;20056;-82
2023/04/26 09:40:33;;;;;;;5.60;1.48;;;10.20;99.90;;;;;;5048059;28;20491;-82
2023/04/26 09:43:04;;;;;;;4.40;1.80;;;10.40;99.90;;;;;;5048328;28;20156;-82
2023/04/26 09:45:32;;;;;;;3.65;1.65;;;10.50;99.90;;;;;;5048234;28;20078;-82
2023/04/26 09:48:21;;;;;;;2.25;1.30;;;10.70;99.90;;;;;;5047461;28;20093;-81
2023/04/26 09:50:48;;;;;;;2.78;1.60;;;11.00;99.90;;;;;;5046933;28;20070;-82
2023/04/26 09:53:35;;;;;;;3.38;1.42;;;11.30;99.90;;;;;;5047911;28;20041;-82
2023/04/26 09:56:09;;;;;;;2.03;1.80;;;11.90;92.30;;;;;;5047327;28;20045;-82
2023/04/26 09:58:56;;;;;;;4.72;1.73;;;11.40;98.20;;;;;;5048137;28;20098;-81
2023/04/26 10:01:22;;;;;;;3.33;1.77;;;11.20;70.00;;;;;;5030008;28;20439;-82
2023/04/26 10:03:49;;;;;;;4.50;1.70;;;11.10;97.40;;;;;;5029913;28;20443;-82
2023/04/26 10:06:18;;;;;;;2.33;1.60;;;11.00;96.90;;;;;;5018114;28;20694;-81
2023/04/26 10:08:44;;;;;;;3.78;1.60;;;11.00;96.40;;;;;;5025614;28;20049;-82
2023/04/26 10:11:10;;;;;;;5.50;2.00;;;11.20;98.20;;;;;;5030119;28;20102;-82
2023/04/26 10:13:36;;;;;;;4.10;1.40;;;11.30;97.50;;;;;;5030488;28;20167;-82
2023/04/26 10:16:03;;;;;;;2.80;1.40;;;11.40;96.60;;;;;;5029958;28;20072;-82
2023/04/26 10:18:30;;;;;;;3.78;1.40;;;11.30;95.50;;;;;;5030291;28;20474;-81
2023/04/26 10:21:01;;;;;;;5.15;1.70;;;11.20;96.10;;;;;;5030144;28;20057;-81
2023/04/26 10:23:27;;;;;;;5.45;1.80;;;11.00;88.00;;;;;;5046990;28;20483;-81
2023/04/26 10:25:54;;;;;;;4.10;2.05;;;10.80;97.30;;;;;;5046508;28;20048;-82
2023/04/26 10:28:38;;;;;;;5.80;2.10;;;10.70;98.90;;;;;;5046664;28;20084;-83
2023/04/26 10:31:06;;;;;;;5.55;2.10;;;10.40;95.40;;;;;;5047049;28;20388;-82
2023/04/26 10:33:32;;;;;;;4.57;1.98;;;10.30;99.90;;;;;;5047175;28;20037;-84
2023/04/26 10:36:10;;;;;;;4.22;2.70;;;10.20;99.90;;;;;;5034025;28;20389;-83
2023/04/26 10:38:38;;;;;;;4.22;2.38;;;9.70;99.90;;;;;;5051993;28;20044;-83
2023/04/26 10:41:35;;;;;;;4.70;2.25;;;9.50;99.90;;;;;;5032837;28;20045;-83
2023/04/26 10:44:40;;;;;;;5.65;2.00;;;9.20;99.90;;;;;;5032865;28;20045;-84
2023/04/26 10:47:19;;;;;;;6.07;2.10;;;9.10;99.90;;;;;;4969805;28;20082;-83
2023/04/26 10:49:47;;;;;;;4.93;2.00;;;9.10;99.90;;;;;;4953158;28;20138;-83
2023/04/26 10:52:15;;;;;;;5.75;2.30;;;9.00;99.90;;;;;;4988198;28;20136;-83
2023/04/26 10:54:52;;;;;;;3.40;1.98;;;8.90;99.90;;;;;;4997227;28;20050;-83
2023/04/26 10:57:19;;;;;;;8.23;2.70;;;8.90;99.90;;;;;;5031633;28;20120;-83
2023/04/26 11:00:12;;;;;;;3.42;1.80;;;8.90;99.90;;;;;;5025858;28;20045;-82
2023/04/26 11:02:57;;;;;;;5.32;2.47;;;9.10;99.90;;;;;;5037198;28;20074;-83
2023/04/26 11:05:36;;;;;;;5.40;2.00;;;9.20;99.90;;;;;;5051542;28;20048;-83
2023/04/26 11:08:15;;;;;;;5.60;2.20;;;9.30;99.90;;;;;;5032234;28;20041;-83
2023/04/26 11:10:42;;;;;;;3.78;2.53;;;9.40;99.90;;;;;;5049527;28;20048;-82
2023/04/26 11:13:07;;;;;;;3.83;1.80;;;9.50;99.90;;;;;;5050608;28;20514;-81
2023/04/26 11:15:34;;;;;;;4.18;2.10;;;9.60;99.90;;;;;;5040992;28;20098;-82
2023/04/26 11:18:03;;;;;;;4.05;2.20;;;9.80;99.90;;;;;;5028007;28;20072;-82
2023/04/26 11:20:33;;;;;;;4.85;2.30;;;10.20;99.90;;;;;;5047627;28;20059;-82
2023/04/26 11:22:59;;;;;;;7.65;2.45;;;10.10;99.90;;;;;;5030565;28;20044;-82
2023/04/26 11:25:30;;;;;;;4.25;2.20;;;10.20;99.90;;;;;;5030554;28;20052;-82
2023/04/26 11:27:57;;;;;;;5.88;2.25;;;10.40;99.90;;;;;;5050170;28;20127;-82
2023/04/26 11:30:23;;;;;;;6.28;2.25;;;10.50;99.90;;;;;;5032777;28;20053;-83
2023/04/26 11:32:49;;;;;;;4.97;2.08;;;10.70;99.90;;;;;;5031936;28;20056;-82
2023/04/26 11:35:15;;;;;;;5.55;1.88;;;11.00;99.90;;;;;;5030388;28;20389;-79
2023/04/26 11:37:41;;;;;;;3.15;2.25;;;11.30;99.90;;;;;;5028489;28;20049;-81
2023/04/26 11:40:10;;;;;;;3.47;1.95;;;11.60;99.90;;;;;;5035145;28;20053;-81
2023/04/26 11:42:41;;;;;;;3.90;1.88;;;11.80;99.10;;;;;;5050560;28;20095;-80
2023/04/26 11:45:07;;;;;;;3.45;1.70;;;11.80;98.40;;;;;;5049346;28;20095;-81
2023/04/26 11:47:33;;;;;;;3.13;1.75;;;11.60;95.10;;;;;;5031301;28;20041;-81
2023/04/26 11:50:00;;;;;;;3.65;1.80;;;11.60;93.90;;;;;;5015888;28;20137;-80
2023/04/26 11:52:26;;;;;;;3.58;2.03;;;11.50;91.30;;;;;;5063915;28;20128;-81
2023/04/26 11:55:07;;;;;;;4.13;2.28;;;11.40;94.30;;;;;;5049435;28;20099;-81
2023/04/26 11:57:33;;;;;;;3.92;1.90;;;11.30;92.70;;;;;;5049455;28;20069;-81
2023/04/26 12:00:13;;;;;;;6.53;2.00;;;11.20;94.60;;;;;;5049489;28;20130;-80
2023/04/26 12:02:43;;;;;;;4.95;2.22;;;11.20;90.00;;;;;;5049833;28;20052;-80
2023/04/26 12:05:09;;;;;;;5.30;2.20;;;11.40;94.40;;;;;;5044687;28;20049;-81
2023/04/26 12:07:36;;;;;;;3.13;2.00;;;11.60;95.60;;;;;;5029991;28;20061;-81
2023/04/26 12:10:34;;;;;;;7.13;2.15;;;11.70;92.60;;;;;;5030599;28;20042;-79
2023/04/26 12:13:00;;;;;;;3.88;2.25;;;11.90;87.30;;;;;;5039673;28;20053;-80
2023/04/26 12:15:33;;;;;;;4.70;2.17;;;11.60;95.00;;;;;;5031588;28;20507;-80
2023/04/26 12:18:08;;;;;;;6.43;2.83;;;11.20;92.40;;;;;;5031930;28;20392;-79
2023/04/26 12:20:37;;;;;;;5.00;2.70;;;10.90;96.20;;;;;;5048683;28;20091;-79
2023/04/26 12:23:12;;;;;;;5.18;2.00;;;10.60;98.20;;;;;;5030106;28;20049;-79
2023/04/26 12:25:39;;;;;;;6.75;2.50;;;10.50;98.10;;;;;;5048208;28;20048;-80
2023/04/26 12:28:10;;;;;;;6.47;2.38;;;10.20;97.90;;;;;;5030902;28;20060;-79
2023/04/26 12:30:37;;;;;;;6.38;2.85;;;10.10;99.90;;;;;;5014535;28;20071;-81
2023/04/26 12:33:02;;;;;;;5.45;2.35;;;10.10;99.90;;;;;;5049417;28;20052;-79
2023/04/26 12:35:28;;;;;;;7.00;2.45;;;9.90;99.10;;;;;;5048782;28;20053;-80
2023/04/26 12:37:55;;;;;;;2.50;2.20;;;10.00;99.90;;;;;;5030095;28;20065;-80
2023/04/26 12:40:22;;;;;;;9.68;3.38;;;10.00;98.60;;;;;;5030178;28;20064;-79
2023/04/26 12:42:49;;;;;;;6.07;2.53;;;9.90;98.50;;;;;;5031090;28;20068;-79
2023/04/26 12:45:17;;;;;;;3.63;2.40;;;9.80;98.00;;;;;;5030365;28;20041;-80
2023/04/26 12:47:44;;;;;;;2.90;2.10;;;9.90;98.30;;;;;;5049567;28;20109;-80
2023/04/26 12:50:11;;;;;;;3.20;2.30;;;10.00;98.70;;;;;;5049248;28;20063;-79
2023/04/26 12:52:41;;;;;;;5.80;2.55;;;10.00;99.20;;;;;;5048721;28;20120;-80
2023/04/26 12:55:07;;;;;;;4.20;2.50;;;10.10;99.90;;;;;;5030532;28;20415;-80
2023/04/26 12:57:36;;;;;;;5.15;2.83;;;10.10;99.90;;;;;;5047260;28;20049;-82